Time;durP1;ratioP1;P1;durP2;ratioP2;P2;SDS_P1;SDS_P2;PMS_P1;PMS_P2;Temp;Humidity;BMP_temperature;BMP_pressure;BME280_temperature;BME280_humidity;BME280_pressure;Samples;Min_cycle;Max_cycle;Signal;HPM_P1;HPM_P2
2023/12/07 00:01:41;;;;;;;73.70;34.70;;;;;;;-0.43;93.53;99251.20;108129;1305;22488;-46
2023/12/07 00:04:06;;;;;;;75.30;33.70;;;;;;;-0.43;93.71;99252.40;108157;1305;23195;-47
2023/12/07 00:06:32;;;;;;;78.60;35.30;;;;;;;-0.44;93.45;99252.08;108154;1305;22168;-49
2023/12/07 00:08:58;;;;;;;69.80;33.20;;;;;;;-0.46;93.40;99247.79;108152;1305;22510;-50
2023/12/07 00:11:24;;;;;;;77.20;35.60;;;;;;;-0.46;93.29;99248.47;108154;1305;23111;-48
2023/12/07 00:13:49;;;;;;;72.20;34.70;;;;;;;-0.46;93.31;99253.31;108169;1305;22424;-49
2023/12/07 00:16:15;;;;;;;76.40;34.90;;;;;;;-0.47;93.17;99251.08;108142;1305;22298;-47
2023/12/07 00:18:40;;;;;;;83.70;36.70;;;;;;;-0.48;93.17;99250.39;108128;1305;22248;-47
2023/12/07 00:21:08;;;;;;;76.10;34.50;;;;;;;-0.46;93.05;99250.38;108121;1305;22367;-48
2023/12/07 00:23:33;;;;;;;73.70;34.90;;;;;;;-0.48;93.00;99248.67;108134;1305;22286;-46
2023/12/07 00:25:59;;;;;;;86.80;37.30;;;;;;;-0.47;93.06;99248.48;108131;1305;22250;-46
2023/12/07 00:28:24;;;;;;;74.90;35.70;;;;;;;-0.48;93.05;99247.46;108138;1305;22525;-49
2023/12/07 00:30:50;;;;;;;81.30;36.00;;;;;;;-0.47;93.01;99244.88;108165;1305;22500;-47
2023/12/07 00:33:16;;;;;;;76.20;33.30;;;;;;;-0.49;92.97;99246.96;108139;1305;22244;-47
2023/12/07 00:35:42;;;;;;;83.50;36.90;;;;;;;-0.50;92.93;99247.15;108159;1305;22243;-47
2023/12/07 00:38:08;;;;;;;80.00;37.20;;;;;;;-0.51;92.88;99248.02;108146;1305;23233;-46
2023/12/07 00:40:36;;;;;;;74.90;35.00;;;;;;;-0.51;93.26;99250.10;108149;1305;23186;-48
2023/12/07 00:43:03;;;;;;;79.00;35.70;;;;;;;-0.50;93.12;99247.67;108155;1305;23581;-46
2023/12/07 00:45:28;;;;;;;79.90;36.60;;;;;;;-0.51;93.16;99246.13;108106;1305;22247;-45
2023/12/07 00:47:53;;;;;;;75.90;34.90;;;;;;;-0.52;93.00;99249.41;108131;1305;23407;-48
2023/12/07 00:50:19;;;;;;;77.10;36.30;;;;;;;-0.51;92.94;99251.29;108142;1305;22258;-48
2023/12/07 00:52:45;;;;;;;78.00;35.60;;;;;;;-0.53;92.92;99251.48;108159;1305;22238;-47
2023/12/07 00:55:10;;;;;;;79.00;36.10;;;;;;;-0.53;92.82;99252.17;108148;1305;22358;-50
2023/12/07 00:57:36;;;;;;;79.90;36.30;;;;;;;-0.52;92.86;99245.79;108144;1305;22382;-48
2023/12/07 01:00:01;;;;;;;78.50;35.80;;;;;;;-0.52;93.02;99249.59;108152;1305;22239;-46
2023/12/07 01:02:27;;;;;;;78.90;35.60;;;;;;;-0.52;92.88;99252.67;108144;1305;22253;-48
2023/12/07 01:04:53;;;;;;;83.80;37.50;;;;;;;-0.52;92.85;99255.95;108139;1305;22390;-48
2023/12/07 01:07:18;;;;;;;76.70;36.10;;;;;;;-0.52;92.89;99262.49;108138;1305;23417;-52
2023/12/07 01:09:43;;;;;;;77.30;36.00;;;;;;;-0.54;92.97;99265.44;108159;1305;22193;-47
2023/12/07 01:12:09;;;;;;;80.20;35.70;;;;;;;-0.54;93.14;99262.85;108150;1305;22517;-48
2023/12/07 01:14:34;;;;;;;76.10;35.30;;;;;;;-0.53;93.22;99261.48;108144;1305;22256;-48
2023/12/07 01:16:59;;;;;;;80.60;37.20;;;;;;;-0.50;93.26;99265.23;108133;1305;22507;-47
2023/12/07 01:19:25;;;;;;;79.00;35.30;;;;;;;-0.49;93.37;99266.43;108136;1305;22414;-46
2023/12/07 01:21:50;;;;;;;81.70;35.80;;;;;;;-0.46;93.37;99268.64;108151;1305;22518;-48
2023/12/07 01:24:16;;;;;;;79.00;36.20;;;;;;;-0.43;93.29;99264.30;108160;1305;23754;-46
2023/12/07 01:26:41;;;;;;;79.70;34.70;;;;;;;-0.41;93.26;99265.65;108152;1305;22234;-45
2023/12/07 01:29:07;;;;;;;74.50;31.60;;;;;;;-0.41;93.23;99268.05;108149;1305;22297;-45
2023/12/07 01:31:32;;;;;;;80.40;35.10;;;;;;;-0.39;93.14;99267.69;108165;1305;22445;-48
2023/12/07 01:33:58;;;;;;;71.00;34.10;;;;;;;-0.41;93.24;99269.44;108164;1305;22272;-49
2023/12/07 01:36:23;;;;;;;80.40;35.20;;;;;;;-0.41;93.25;99269.95;108125;1305;22586;-48
2023/12/07 01:38:48;;;;;;;75.20;35.80;;;;;;;-0.40;93.36;99274.08;108125;1305;22271;-47
2023/12/07 01:41:14;;;;;;;75.20;35.40;;;;;;;-0.37;93.29;99273.52;108151;1305;22267;-47
2023/12/07 01:43:46;;;;;;;81.30;36.10;;;;;;;-0.34;93.21;99273.33;108161;1305;22689;-51
2023/12/07 01:46:13;;;;;;;78.60;35.00;;;;;;;-0.32;93.11;99273.48;108151;1305;22180;-48
2023/12/07 01:48:38;;;;;;;69.00;34.20;;;;;;;-0.33;93.09;99272.45;108156;1305;22238;-49
2023/12/07 01:51:04;;;;;;;75.90;35.50;;;;;;;-0.33;93.14;99275.55;108150;1305;23488;-48
2023/12/07 01:53:29;;;;;;;79.80;34.60;;;;;;;-0.32;93.14;99279.34;108149;1305;22202;-49
2023/12/07 01:55:55;;;;;;;75.00;35.30;;;;;;;-0.34;93.26;99280.39;108122;1305;22480;-45
2023/12/07 01:58:21;;;;;;;76.00;33.90;;;;;;;-0.34;93.27;99283.83;108148;1305;22724;-48
2023/12/07 02:00:47;;;;;;;77.60;34.70;;;;;;;-0.33;93.48;99286.92;108147;1305;22298;-46
2023/12/07 02:03:13;;;;;;;72.00;33.90;;;;;;;-0.33;93.68;99287.09;108164;1305;22349;-47
2023/12/07 02:05:43;;;;;;;78.20;35.70;;;;;;;-0.33;93.79;99282.77;108148;1305;22447;-47
2023/12/07 02:08:08;;;;;;;75.40;34.00;;;;;;;-0.32;94.07;99282.24;108145;1305;22267;-48
2023/12/07 02:10:34;;;;;;;74.30;33.30;;;;;;;-0.30;94.02;99277.77;108121;1305;22532;-46
2023/12/07 02:12:59;;;;;;;75.00;33.20;;;;;;;-0.27;94.06;99282.20;108164;1305;22406;-47
2023/12/07 02:15:24;;;;;;;76.40;32.50;;;;;;;-0.24;93.70;99281.64;108142;1305;22399;-46
2023/12/07 02:17:50;;;;;;;77.50;33.20;;;;;;;-0.26;93.58;99281.50;108137;1305;22273;-46
2023/12/07 02:20:39;;;;;;;73.50;31.90;;;;;;;-0.24;93.71;99280.96;108147;1298;22250;-46
2023/12/07 02:23:07;;;;;;;79.50;31.60;;;;;;;-0.22;93.75;99287.98;108144;1305;22939;-51
2023/12/07 02:28:28;;;;;;;77.60;32.60;;;;;;;-0.16;93.81;99289.13;107672;1305;22250;-51
2023/12/07 02:30:54;;;;;;;75.20;34.50;;;;;;;-0.14;93.75;99286.70;108157;1305;22424;-50
2023/12/07 02:33:19;;;;;;;70.50;32.60;;;;;;;-0.14;93.64;99286.86;108149;1305;22503;-46
2023/12/07 02:35:45;;;;;;;75.30;32.40;;;;;;;-0.12;93.84;99290.98;108165;1305;22319;-48
2023/12/07 02:38:11;;;;;;;73.70;32.50;;;;;;;-0.10;93.51;99288.20;108128;1305;23028;-48
2023/12/07 02:43:36;;;;;;;73.20;32.20;;;;;;;-0.04;93.36;99294.16;106865;1306;544860;-47
2023/12/07 02:46:01;;;;;;;74.90;33.20;;;;;;;-0.02;93.30;99289.48;107352;1313;23125;-48
2023/12/07 02:48:27;;;;;;;73.70;34.00;;;;;;;0.01;93.26;99294.08;107271;1314;22476;-47
2023/12/07 02:50:52;;;;;;;69.10;32.30;;;;;;;-0.01;93.11;99293.61;107598;1310;22272;-45
2023/12/07 02:53:18;;;;;;;74.50;32.80;;;;;;;-0.03;93.12;99301.39;107604;1310;23513;-47
2023/12/07 02:55:43;;;;;;;80.70;36.20;;;;;;;-0.05;93.21;99302.96;107588;1310;22994;-47
2023/12/07 02:58:08;;;;;;;79.40;36.20;;;;;;;-0.07;93.63;99303.50;107686;1308;169740;-45
2023/12/07 03:00:34;;;;;;;84.50;38.10;;;;;;;-0.09;93.42;99302.50;107822;1308;22894;-47
2023/12/07 03:02:59;;;;;;;72.50;35.30;;;;;;;-0.09;93.61;99303.70;107829;1308;22228;-47
2023/12/07 03:05:25;;;;;;;79.10;36.40;;;;;;;-0.11;93.61;99305.11;107804;1308;22248;-47
2023/12/07 03:07:50;;;;;;;74.60;34.50;;;;;;;-0.13;93.82;99305.45;107829;1308;23034;-46
2023/12/07 03:10:16;;;;;;;62.30;31.30;;;;;;;-0.14;93.94;99307.02;107858;1308;22242;-44
2023/12/07 03:12:41;;;;;;;74.90;32.40;;;;;;;-0.15;93.75;99307.73;107854;1298;23272;-45
2023/12/07 03:15:07;;;;;;;65.40;31.70;;;;;;;-0.16;93.82;99308.42;107835;1302;22472;-47
2023/12/07 03:17:32;;;;;;;65.50;32.00;;;;;;;-0.17;94.09;99310.16;107971;1307;22433;-48
2023/12/07 03:19:57;;;;;;;73.40;32.70;;;;;;;-0.17;94.37;99311.21;107960;1307;22279;-46
2023/12/07 03:22:24;;;;;;;74.80;31.90;;;;;;;-0.18;94.36;99312.09;107985;1307;22240;-48
2023/12/07 03:24:51;;;;;;;73.80;33.30;;;;;;;-0.18;94.27;99312.24;107998;1307;22519;-48
2023/12/07 03:27:17;;;;;;;71.60;31.70;;;;;;;-0.18;94.28;99310.02;107977;1307;22424;-50
2023/12/07 03:29:42;;;;;;;80.80;33.70;;;;;;;-0.19;94.29;99311.40;107990;1307;23207;-49
2023/12/07 03:32:08;;;;;;;86.90;37.50;;;;;;;-0.16;94.46;99311.88;108001;1307;22240;-47
2023/12/07 03:34:33;;;;;;;82.90;36.30;;;;;;;-0.16;94.41;99310.33;107976;1307;23156;-47
2023/12/07 03:36:58;;;;;;;69.80;32.20;;;;;;;-0.15;94.39;99310.31;107999;1307;22267;-51
2023/12/07 03:39:25;;;;;;;75.40;34.70;;;;;;;-0.14;94.44;99313.41;108005;1307;22510;-49
2023/12/07 03:41:50;;;;;;;71.70;32.80;;;;;;;-0.13;94.43;99314.42;108004;1307;22243;-46
2023/12/07 03:44:16;;;;;;;69.40;31.70;;;;;;;-0.10;94.42;99310.27;107991;1307;22488;-46
2023/12/07 03:46:41;;;;;;;75.80;32.30;;;;;;;-0.07;94.52;99309.36;107987;1307;22236;-46
2023/12/07 03:49:07;;;;;;;72.80;33.00;;;;;;;-0.05;94.33;99310.36;107988;1307;22240;-46
2023/12/07 03:51:32;;;;;;;72.00;31.40;;;;;;;-0.01;94.43;99301.70;107980;1307;22178;-48
2023/12/07 03:53:58;;;;;;;67.70;31.30;;;;;;;0.02;94.27;99303.04;107955;1307;23023;-46
2023/12/07 03:56:27;;;;;;;71.20;32.60;;;;;;;0.06;94.23;99300.92;107965;1307;22582;-48
2023/12/07 03:58:53;;;;;;;76.20;33.20;;;;;;;0.06;94.18;99303.36;107965;1307;22435;-48
2023/12/07 04:01:25;;;;;;;76.10;34.00;;;;;;;0.09;94.03;99300.55;107974;1307;22271;-50
2023/12/07 04:03:52;;;;;;;69.00;30.70;;;;;;;0.15;94.01;99303.05;107950;1307;22205;-46
2023/12/07 04:06:18;;;;;;;61.40;30.20;;;;;;;0.17;93.88;99303.04;107959;1307;22222;-46
2023/12/07 04:08:44;;;;;;;65.80;30.30;;;;;;;0.16;93.96;99302.89;107947;1307;22245;-51
2023/12/07 04:11:09;;;;;;;64.20;29.80;;;;;;;0.18;93.92;99303.54;107954;1307;22205;-47
2023/12/07 04:13:34;;;;;;;64.10;28.90;;;;;;;0.17;93.87;99305.27;107968;1307;22228;-48
2023/12/07 04:16:00;;;;;;;66.40;29.80;;;;;;;0.18;93.76;99304.05;107958;1307;22434;-48
2023/12/07 04:18:25;;;;;;;64.50;29.40;;;;;;;0.20;93.85;99308.35;107952;1307;22235;-47
2023/12/07 04:20:51;;;;;;;62.90;29.00;;;;;;;0.21;93.70;99309.20;107930;1307;22478;-49
2023/12/07 04:23:16;;;;;;;62.60;29.20;;;;;;;0.19;93.69;99309.58;107945;1307;22310;-49
2023/12/07 04:25:41;;;;;;;62.10;29.40;;;;;;;0.14;93.57;99309.27;107947;1307;23112;-45
2023/12/07 04:28:07;;;;;;;57.30;27.60;;;;;;;0.12;93.80;99310.67;107959;1307;22302;-47
2023/12/07 04:30:32;;;;;;;67.20;28.50;;;;;;;0.14;93.97;99312.73;107974;1307;22226;-49
2023/12/07 17:43:02;;;;;;;89.60;38.40;;;;;;;1.39;95.75;99543.36;107106;1310;544942;-54
2023/12/07 17:45:27;;;;;;;81.10;36.80;;;;;;;1.38;95.70;99546.14;107417;1312;22450;-54
2023/12/07 17:47:52;;;;;;;96.40;41.10;;;;;;;1.38;95.72;99544.41;107395;1312;22310;-55
2023/12/07 17:50:18;;;;;;;88.10;38.60;;;;;;;1.37;95.62;99542.52;107400;1312;23337;-50
2023/12/07 17:52:44;;;;;;;98.10;41.20;;;;;;;1.38;95.60;99540.60;107414;1312;22438;-52
2023/12/07 17:55:10;;;;;;;98.50;40.50;;;;;;;1.41;95.58;99542.14;107425;1312;22305;-53
2023/12/07 17:57:35;;;;;;;88.60;38.80;;;;;;;1.41;95.54;99543.16;107523;1310;155856;-54
2023/12/07 18:00:00;;;;;;;87.90;37.80;;;;;;;1.43;95.51;99537.60;107689;1310;22239;-56
2023/12/07 18:02:26;;;;;;;86.00;38.30;;;;;;;1.44;95.59;99536.05;107686;1310;23338;-56
2023/12/07 18:04:51;;;;;;;91.10;41.00;;;;;;;1.46;95.55;99532.03;107651;1310;22504;-54
2023/12/07 18:07:16;;;;;;;87.10;39.50;;;;;;;1.52;95.56;99535.59;107677;1310;23158;-54
2023/12/07 18:09:42;;;;;;;89.90;36.50;;;;;;;1.54;95.30;99534.16;107645;1310;22236;-54
2023/12/07 18:12:07;;;;;;;87.30;37.10;;;;;;;1.51;95.07;99538.52;107654;1310;24841;-56
2023/12/07 18:14:33;;;;;;;82.10;35.30;;;;;;;1.50;95.29;99540.44;107891;1307;22400;-54
2023/12/07 18:16:58;;;;;;;86.90;38.50;;;;;;;1.51;95.40;99542.34;107906;1308;22283;-51
2023/12/07 18:19:23;;;;;;;93.10;39.40;;;;;;;1.50;95.22;99542.70;107928;1307;22243;-55
2023/12/07 18:21:49;;;;;;;89.00;37.50;;;;;;;1.48;95.24;99543.57;107926;1305;22326;-54
2023/12/07 18:24:14;;;;;;;83.80;37.70;;;;;;;1.47;95.29;99540.98;107888;1307;22587;-53
2023/12/07 18:26:40;;;;;;;82.00;36.10;;;;;;;1.48;95.35;99542.72;107908;1307;23073;-52
2023/12/07 18:29:08;;;;;;;91.00;40.10;;;;;;;1.48;95.41;99545.83;107872;1301;22316;-53
2023/12/07 18:31:34;;;;;;;94.80;39.30;;;;;;;1.48;95.62;99544.79;107858;1307;22234;-54
2023/12/07 18:33:59;;;;;;;86.70;38.10;;;;;;;1.47;95.79;99540.47;107909;1307;23551;-54
2023/12/07 18:36:24;;;;;;;85.30;39.20;;;;;;;1.48;95.68;99540.48;107908;1307;22235;-53
2023/12/07 18:38:50;;;;;;;87.60;39.60;;;;;;;1.49;95.62;99542.54;107896;1307;23294;-54
2023/12/07 18:41:16;;;;;;;85.10;37.40;;;;;;;1.51;95.66;99541.46;107904;1307;22507;-55
2023/12/07 18:43:41;;;;;;;87.10;38.60;;;;;;;1.55;95.83;99540.55;107932;1307;22262;-56
2023/12/07 18:46:08;;;;;;;85.80;37.50;;;;;;;1.56;95.92;99535.18;107814;1307;22959;-57
2023/12/07 18:48:33;;;;;;;93.30;39.10;;;;;;;1.56;95.91;99530.70;107910;1307;22269;-53
2023/12/07 18:50:59;;;;;;;86.30;37.90;;;;;;;1.56;95.98;99530.17;107923;1307;22245;-54
2023/12/07 18:53:27;;;;;;;90.90;36.40;;;;;;;1.58;96.37;99534.28;107902;1308;22470;-54
2023/12/07 18:55:52;;;;;;;;;;;;;;;1.58;96.31;99533.25;107893;1308;22522;-54
2023/12/07 18:58:18;;;;;;;77.40;32.90;;;;;;;1.55;96.32;99531.90;107839;1308;23677;-55
2023/12/07 19:00:43;;;;;;;88.80;38.50;;;;;;;1.53;96.30;99532.80;107848;1308;22989;-53
2023/12/07 19:03:08;;;;;;;83.30;35.40;;;;;;;1.52;96.47;99530.04;107857;1308;22399;-55
2023/12/07 19:05:34;;;;;;;96.50;39.70;;;;;;;1.53;96.65;99532.96;107887;1308;22925;-52
2023/12/07 19:08:00;;;;;;;88.40;38.60;;;;;;;1.54;96.73;99531.21;107841;1308;22456;-51
2023/12/07 19:10:25;;;;;;;95.50;41.30;;;;;;;1.56;96.73;99533.27;107866;1308;22403;-54
2023/12/07 19:12:51;;;;;;;104.10;41.60;;;;;;;1.57;96.77;99532.23;107869;1308;22400;-51
2023/12/07 19:15:16;;;;;;;101.30;43.00;;;;;;;1.57;96.87;99534.48;107835;1308;22237;-55
2023/12/07 19:17:42;;;;;;;125.20;50.40;;;;;;;1.54;97.04;99532.08;107863;1308;23184;-57
2023/12/07 19:20:08;;;;;;;113.20;47.00;;;;;;;1.51;97.22;99531.61;107913;1308;22231;-54
2023/12/07 19:22:33;;;;;;;116.40;45.90;;;;;;;1.50;97.47;99531.27;107894;1308;22227;-52
2023/12/07 19:25:00;;;;;;;110.50;45.10;;;;;;;1.51;97.60;99535.41;107893;1307;22451;-53
2023/12/07 19:27:26;;;;;;;136.60;47.40;;;;;;;1.49;97.71;99535.09;107924;1308;23159;-55
2023/12/07 19:29:51;;;;;;;129.00;51.10;;;;;;;1.48;98.07;99539.27;107915;1308;22836;-57
2023/12/07 19:32:16;;;;;;;126.50;48.30;;;;;;;1.46;98.12;99535.30;107838;1308;22266;-55
2023/12/07 19:34:42;;;;;;;128.10;49.90;;;;;;;1.46;98.30;99539.30;107850;1308;22345;-56
2023/12/07 19:37:08;;;;;;;129.60;50.90;;;;;;;1.45;98.47;99538.27;107921;1308;23096;-55
2023/12/07 19:39:33;;;;;;;135.80;48.80;;;;;;;1.44;98.23;99540.02;107894;1308;22269;-57
2023/12/07 19:41:59;;;;;;;125.70;51.40;;;;;;;1.42;98.39;99538.84;107889;1307;22483;-57
2023/12/07 19:44:24;;;;;;;152.80;61.40;;;;;;;1.42;98.58;99546.09;107933;1308;22245;-57
2023/12/07 19:46:51;;;;;;;147.40;54.00;;;;;;;1.42;98.86;99549.71;107878;1308;22221;-52
2023/12/07 19:49:16;;;;;;;128.50;48.20;;;;;;;1.42;98.84;99551.44;107896;1308;22236;-54
2023/12/07 19:51:44;;;;;;;108.70;45.00;;;;;;;1.43;98.79;99550.23;107925;1307;22224;-58
2023/12/07 19:54:10;;;;;;;115.90;45.80;;;;;;;1.40;98.85;99549.23;107501;1308;22287;-54
2023/12/07 19:56:36;;;;;;;125.60;47.00;;;;;;;1.38;99.04;99548.55;107932;1308;23174;-54
2023/12/07 19:59:02;;;;;;;129.20;47.90;;;;;;;1.39;99.13;99550.80;107929;1308;23153;-56
2023/12/07 20:01:28;;;;;;;108.30;44.90;;;;;;;1.39;99.14;99553.38;107878;1307;22418;-55
2023/12/07 20:03:53;;;;;;;122.90;45.60;;;;;;;1.37;99.32;99550.98;107933;1308;22240;-57
2023/12/07 20:06:19;;;;;;;107.20;43.90;;;;;;;1.37;99.39;99553.23;107891;1308;22256;-56
2023/12/07 20:08:45;;;;;;;119.90;45.00;;;;;;;1.38;99.54;99557.54;107905;1308;22238;-55
2023/12/07 20:11:20;;;;;;;115.10;46.10;;;;;;;1.38;99.61;99557.03;107916;1308;23125;-56
2023/12/07 20:13:46;;;;;;;108.30;46.00;;;;;;;1.38;99.65;99559.44;107929;1308;22517;-56
2023/12/07 20:16:18;;;;;;;124.40;46.40;;;;;;;1.37;99.66;99559.80;107905;1308;22480;-54
2023/12/07 20:18:44;;;;;;;128.00;47.50;;;;;;;1.38;99.50;99564.29;107904;1308;22240;-56
2023/12/07 20:21:10;;;;;;;110.50;45.90;;;;;;;1.38;99.45;99564.29;107908;1308;22299;-57
2023/12/07 20:23:37;;;;;;;105.30;44.50;;;;;;;1.36;99.58;99559.98;107931;1308;22226;-54
2023/12/07 20:26:03;;;;;;;111.80;43.60;;;;;;;1.33;99.80;99560.38;107901;1308;22237;-55
2023/12/07 20:28:29;;;;;;;114.90;44.70;;;;;;;1.31;99.97;99557.98;107917;1308;22488;-51
2023/12/07 20:30:54;;;;;;;115.80;43.80;;;;;;;1.29;99.93;99559.22;107703;1308;22233;-56
2023/12/07 20:33:20;;;;;;;119.80;43.80;;;;;;;1.27;99.92;99561.32;108002;1307;22301;-56
2023/12/07 20:35:45;;;;;;;108.10;44.40;;;;;;;1.26;99.99;99563.05;108018;1307;23028;-51
2023/12/07 20:38:10;;;;;;;110.70;44.00;;;;;;;1.25;100.00;99561.88;108036;1307;22230;-54
2023/12/07 20:40:36;;;;;;;107.10;43.90;;;;;;;1.22;100.00;99560.86;108034;1307;22249;-54
2023/12/07 20:43:01;;;;;;;105.80;42.70;;;;;;;1.23;100.00;99563.27;108023;1307;22565;-56
2023/12/07 20:45:27;;;;;;;110.80;41.70;;;;;;;1.23;100.00;99563.79;108020;1307;22350;-56
2023/12/07 20:47:52;;;;;;;110.50;42.40;;;;;;;1.20;100.00;99564.86;108027;1307;22252;-54
2023/12/07 20:50:19;;;;;;;113.40;41.70;;;;;;;1.22;100.00;99560.86;108006;1307;22864;-53
2023/12/07 20:52:44;;;;;;;114.10;41.40;;;;;;;1.24;100.00;99567.24;108038;1307;22042;-57
2023/12/07 20:55:11;;;;;;;115.40;42.30;;;;;;;1.25;100.00;99569.11;108027;1307;22348;-55
2023/12/07 20:57:36;;;;;;;105.50;40.70;;;;;;;1.28;100.00;99569.24;108028;1307;23306;-53
2023/12/07 21:00:06;;;;;;;104.60;39.90;;;;;;;1.30;100.00;99568.02;108016;1307;22274;-55
2023/12/07 21:02:31;;;;;;;103.10;41.90;;;;;;;1.29;100.00;99563.88;108022;1307;23108;-56
2023/12/07 21:04:57;;;;;;;110.50;41.40;;;;;;;1.28;100.00;99568.38;108021;1307;22282;-55
2023/12/07 21:07:22;;;;;;;103.70;41.30;;;;;;;1.29;100.00;99569.74;108023;1306;22451;-54
2023/12/07 21:09:47;;;;;;;98.80;38.70;;;;;;;1.27;100.00;99571.15;108020;1307;22242;-54
2023/12/07 21:12:13;;;;;;;96.70;39.70;;;;;;;1.27;100.00;99575.30;108027;1306;22523;-55
2023/12/07 21:14:38;;;;;;;108.80;41.20;;;;;;;1.27;100.00;99573.91;107988;1301;22447;-56
2023/12/07 21:17:04;;;;;;;110.80;42.00;;;;;;;1.29;100.00;99570.61;108020;1307;22224;-55
2023/12/07 21:19:29;;;;;;;100.70;38.70;;;;;;;1.30;100.00;99572.67;108000;1307;22222;-53
2023/12/07 21:21:54;;;;;;;109.00;39.30;;;;;;;1.30;100.00;99570.60;108005;1307;23271;-56
2023/12/07 21:24:21;;;;;;;96.60;37.30;;;;;;;1.32;100.00;99569.89;108036;1307;22407;-57
2023/12/07 21:26:46;;;;;;;98.60;36.90;;;;;;;1.34;100.00;99566.42;108045;1307;22412;-51
2023/12/07 21:29:12;;;;;;;97.30;38.90;;;;;;;1.35;100.00;99564.33;108021;1307;22223;-54
2023/12/07 21:31:37;;;;;;;91.20;37.50;;;;;;;1.35;100.00;99564.49;108023;1307;22114;-54
2023/12/07 21:34:03;;;;;;;106.70;38.80;;;;;;;1.35;100.00;99564.49;108029;1307;22402;-52
2023/12/07 21:36:28;;;;;;;104.70;39.10;;;;;;;1.35;99.99;99565.88;108034;1307;22423;-52
2023/12/07 21:38:53;;;;;;;99.30;38.80;;;;;;;1.37;99.91;99567.42;108017;1307;22228;-56
2023/12/07 21:41:19;;;;;;;94.10;36.00;;;;;;;1.38;99.91;99564.09;108023;1307;22427;-56
2023/12/07 21:43:44;;;;;;;96.50;39.00;;;;;;;1.40;99.94;99560.80;108044;1307;22473;-56
2023/12/07 21:46:10;;;;;;;103.90;39.90;;;;;;;1.41;99.92;99559.23;108023;1307;22405;-56
2023/12/07 21:48:35;;;;;;;111.10;40.70;;;;;;;1.40;99.93;99551.64;108033;1307;22525;-57
2023/12/07 21:51:02;;;;;;;99.30;39.60;;;;;;;1.40;99.94;99548.20;108032;1306;22758;-55
2023/12/07 21:53:28;;;;;;;97.30;38.20;;;;;;;1.41;99.95;99546.29;108031;1307;22419;-54
2023/12/07 21:55:53;;;;;;;92.50;37.60;;;;;;;1.44;99.82;99549.34;108012;1307;22409;-57
2023/12/07 21:58:19;;;;;;;98.50;35.60;;;;;;;1.44;99.57;99548.65;108025;1307;22297;-57
2023/12/07 22:00:44;;;;;;;97.80;37.60;;;;;;;1.44;99.48;99545.55;108036;1307;22250;-55
2023/12/07 22:03:09;;;;;;;90.00;36.70;;;;;;;1.41;99.55;99545.75;108043;1307;22928;-51
2023/12/07 22:05:36;;;;;;;101.70;38.40;;;;;;;1.41;99.46;99547.31;108029;1307;22418;-58
2023/12/07 22:08:02;;;;;;;107.50;39.20;;;;;;;1.41;99.66;99542.83;108034;1306;22340;-53
2023/12/07 22:10:27;;;;;;;110.90;40.30;;;;;;;1.42;99.93;99539.17;108037;1307;23224;-57
2023/12/07 22:12:53;;;;;;;105.50;41.20;;;;;;;1.45;99.95;99535.15;108023;1307;22230;-53
2023/12/07 22:15:18;;;;;;;116.30;40.70;;;;;;;1.46;99.83;99537.92;108040;1307;22992;-56
2023/12/07 22:17:43;;;;;;;104.80;41.50;;;;;;;1.44;99.94;99528.61;108055;1307;22259;-57
2023/12/07 22:20:09;;;;;;;107.60;41.50;;;;;;;1.46;99.97;99522.20;108056;1307;22412;-55
2023/12/07 22:22:35;;;;;;;108.70;40.10;;;;;;;1.46;99.94;99516.65;107804;1307;22479;-55
2023/12/07 22:25:02;;;;;;;111.80;40.90;;;;;;;1.43;99.95;99516.20;108025;1307;22227;-51
2023/12/07 22:27:28;;;;;;;110.60;40.30;;;;;;;1.39;99.95;99519.19;108023;1307;22477;-56
2023/12/07 22:29:53;;;;;;;109.20;39.90;;;;;;;1.36;100.00;99518.20;108061;1307;23109;-56
2023/12/07 22:32:19;;;;;;;110.50;40.60;;;;;;;1.32;100.00;99519.61;108021;1307;22270;-54
2023/12/07 22:34:44;;;;;;;109.20;40.70;;;;;;;1.29;100.00;99516.05;108055;1306;22297;-56
2023/12/07 22:37:09;;;;;;;107.40;40.50;;;;;;;1.27;100.00;99513.46;108008;1307;23005;-55
2023/12/07 22:39:35;;;;;;;128.30;44.50;;;;;;;1.25;100.00;99510.91;108032;1306;22443;-53
2023/12/07 22:42:00;;;;;;;123.00;45.60;;;;;;;1.21;100.00;99505.44;108016;1307;22500;-56
2023/12/07 22:44:25;;;;;;;135.10;49.10;;;;;;;1.18;100.00;99507.55;108047;1307;22226;-55
2023/12/07 22:46:51;;;;;;;143.60;48.90;;;;;;;1.14;100.00;99496.73;108044;1306;22333;-55
2023/12/07 22:49:17;;;;;;;133.30;46.00;;;;;;;1.08;100.00;99497.67;108021;1307;22217;-53
2023/12/07 22:51:42;;;;;;;133.40;49.30;;;;;;;1.04;100.00;99496.17;108036;1307;22409;-55
2023/12/07 22:54:08;;;;;;;145.90;50.30;;;;;;;1.02;100.00;99494.30;108040;1306;22242;-54
2023/12/07 22:56:33;;;;;;;123.80;47.60;;;;;;;1.02;100.00;99492.39;108053;1307;23040;-55
2023/12/07 22:58:59;;;;;;;128.90;48.00;;;;;;;1.03;100.00;99486.68;108063;1307;22496;-56
2023/12/07 23:01:25;;;;;;;136.70;48.90;;;;;;;1.06;100.00;99483.17;108022;1307;22513;-53
2023/12/07 23:03:50;;;;;;;118.60;44.00;;;;;;;1.10;100.00;99481.08;108037;1306;22853;-57
2023/12/07 23:06:15;;;;;;;119.50;43.50;;;;;;;1.12;100.00;99478.80;108012;1307;22393;-54
2023/12/07 23:08:41;;;;;;;115.90;43.70;;;;;;;1.11;100.00;99474.84;108045;1306;22253;-57
2023/12/07 23:11:06;;;;;;;108.80;41.30;;;;;;;1.10;100.00;99466.22;108029;1306;22493;-55
2023/12/07 23:13:32;;;;;;;111.60;42.80;;;;;;;1.11;100.00;99471.55;108021;1307;22958;-55
2023/12/07 23:15:57;;;;;;;114.30;43.20;;;;;;;1.14;100.00;99475.30;108041;1307;22819;-55
2023/12/07 23:18:22;;;;;;;112.10;41.70;;;;;;;1.20;100.00;99471.62;108030;1307;23269;-57
2023/12/07 23:20:48;;;;;;;118.10;43.10;;;;;;;1.21;100.00;99470.91;108037;1307;23245;-55
2023/12/07 23:23:13;;;;;;;124.30;43.90;;;;;;;1.17;99.99;99472.51;108039;1305;23061;-51
2023/12/07 23:25:38;;;;;;;105.90;40.30;;;;;;;1.13;99.90;99470.83;108031;1307;22251;-60
2023/12/07 23:28:04;;;;;;;120.70;43.90;;;;;;;1.14;99.87;99463.92;108030;1307;22332;-53
2023/12/07 23:30:29;;;;;;;116.80;43.40;;;;;;;1.12;99.93;99458.59;108019;1307;22255;-54
2023/12/07 23:32:55;;;;;;;113.90;42.00;;;;;;;1.13;99.81;99460.48;108027;1307;23206;-56
2023/12/07 23:35:20;;;;;;;129.40;44.60;;;;;;;1.11;99.71;99460.50;108044;1307;22316;-54
2023/12/07 23:37:47;;;;;;;118.10;42.80;;;;;;;1.08;99.80;99453.13;108046;1295;22217;-57
2023/12/07 23:40:12;;;;;;;123.70;44.90;;;;;;;1.09;99.84;99454.66;108075;1307;23183;-55
2023/12/07 23:42:38;;;;;;;107.10;40.70;;;;;;;1.14;99.85;99454.77;108033;1307;22195;-56
2023/12/07 23:45:04;;;;;;;105.00;41.70;;;;;;;1.17;99.73;99459.05;108052;1306;22251;-57
2023/12/07 23:47:30;;;;;;;125.30;45.00;;;;;;;1.15;99.42;99460.28;108045;1306;22410;-54
2023/12/07 23:49:55;;;;;;;115.20;43.50;;;;;;;1.15;99.26;99461.84;108033;1307;22260;-54
2023/12/07 23:52:21;;;;;;;125.20;46.20;;;;;;;1.13;99.33;99462.21;108026;1307;22254;-56
2023/12/07 23:54:47;;;;;;;122.70;45.80;;;;;;;1.14;99.24;99458.90;108041;1307;23326;-54
2023/12/07 23:57:13;;;;;;;123.60;47.10;;;;;;;1.10;99.03;99458.95;108061;1307;22223;-56
2023/12/07 23:59:39;;;;;;;123.00;46.20;;;;;;;1.06;99.14;99464.55;108052;1307;23042;-57
